createdAt,value
2022-10-21T00:00:12.840Z,0.00
2022-10-21T00:01:12.867Z,0.00
2022-10-21T00:02:13.199Z,0.00
2022-10-21T00:03:12.965Z,0.00
2022-10-21T00:04:12.978Z,0.00
2022-10-21T00:05:13.109Z,0.00
2022-10-21T00:06:13.025Z,0.00
2022-10-21T00:07:13.057Z,0.00
2022-10-21T00:08:13.141Z,0.00
2022-10-21T00:09:13.530Z,0.00
2022-10-21T00:10:13.176Z,0.00
2022-10-21T00:11:13.188Z,0.00
2022-10-21T00:12:13.231Z,0.00
2022-10-21T00:13:13.250Z,0.00
2022-10-21T00:14:13.283Z,0.00
2022-10-21T00:15:13.324Z,0.00
2022-10-21T00:16:14.981Z,0.00
2022-10-21T00:17:13.384Z,0.00
2022-10-21T00:18:13.512Z,0.00
2022-10-21T00:19:13.784Z,0.00
2022-10-21T00:20:13.555Z,0.00
2022-10-21T00:21:13.606Z,0.00
2022-10-21T00:22:13.800Z,0.00
2022-10-21T00:23:13.629Z,0.00
2022-10-21T00:24:13.605Z,0.00
2022-10-21T00:25:13.645Z,0.00
2022-10-21T00:26:13.678Z,0.00
2022-10-21T00:27:13.691Z,0.00
2022-10-21T00:28:17.947Z,0.00
2022-10-21T00:29:13.818Z,0.00
2022-10-21T00:30:13.797Z,0.00
2022-10-21T00:31:13.817Z,0.00
2022-10-21T00:32:13.845Z,0.00
2022-10-21T00:34:13.912Z,0.00
2022-10-21T00:35:14.241Z,0.00
2022-10-21T00:36:13.974Z,0.00
2022-10-21T00:37:14.005Z,0.00
2022-10-21T00:38:14.061Z,0.00
2022-10-21T00:39:14.070Z,0.00
2022-10-21T00:40:14.100Z,0.00
2022-10-21T00:41:14.429Z,0.00
2022-10-21T00:43:14.220Z,0.00
2022-10-21T00:44:14.223Z,0.00
2022-10-21T00:45:14.283Z,0.00
2022-10-21T00:46:14.340Z,0.00
2022-10-21T00:47:14.318Z,0.00
2022-10-21T00:48:14.651Z,0.00
2022-10-21T00:49:14.385Z,0.00
2022-10-21T00:50:14.423Z,0.00
2022-10-21T00:51:14.448Z,0.00
2022-10-21T00:52:14.474Z,0.00
2022-10-21T00:53:14.523Z,0.00
2022-10-21T00:54:14.590Z,0.00
2022-10-21T00:55:14.942Z,0.00
2022-10-21T00:56:16.507Z,0.00
2022-10-21T00:57:14.634Z,0.00
2022-10-21T00:58:14.680Z,0.00
2022-10-21T00:59:14.715Z,0.00
2022-10-21T01:00:14.726Z,0.00
2022-10-21T01:01:17.919Z,0.00
2022-10-21T01:02:15.092Z,0.00
2022-10-21T01:04:15.160Z,0.00
2022-10-21T01:06:14.961Z,0.00
2022-10-21T01:07:14.952Z,0.00
2022-10-21T01:08:14.996Z,0.00
2022-10-21T01:09:15.360Z,0.00
2022-10-21T01:10:15.049Z,0.00
2022-10-21T01:11:15.207Z,0.00
2022-10-21T01:12:15.111Z,0.00
2022-10-21T01:13:15.158Z,0.00
2022-10-21T01:14:15.178Z,0.00
2022-10-21T01:15:15.221Z,0.00
2022-10-21T01:16:15.535Z,0.00
2022-10-21T01:17:26.282Z,0.00
2022-10-21T01:18:15.292Z,0.00
2022-10-21T01:19:15.329Z,0.00
2022-10-21T01:20:15.358Z,0.00
2022-10-21T01:21:15.389Z,0.00
2022-10-21T01:22:15.425Z,0.00
2022-10-21T01:23:16.056Z,0.00
2022-10-21T01:24:15.494Z,0.00
2022-10-21T01:25:15.528Z,0.00
2022-10-21T01:26:15.543Z,0.00
2022-10-21T01:27:15.599Z,0.00
2022-10-21T01:29:15.640Z,0.00
2022-10-21T01:30:15.972Z,0.00
2022-10-21T01:31:15.723Z,0.00
2022-10-21T01:33:15.764Z,0.00
2022-10-21T01:34:15.794Z,0.00
2022-10-21T01:35:15.829Z,0.00
2022-10-21T01:36:15.860Z,0.00
2022-10-21T01:37:16.198Z,0.00
2022-10-21T01:38:15.931Z,0.00
2022-10-21T01:39:15.953Z,0.00
2022-10-21T01:40:15.986Z,0.00
2022-10-21T01:41:16.019Z,0.00
2022-10-21T01:42:16.065Z,0.00
2022-10-21T01:43:16.108Z,0.00
2022-10-21T01:44:16.418Z,0.00
2022-10-21T01:45:16.195Z,0.00
2022-10-21T01:46:16.172Z,0.00
2022-10-21T01:47:16.225Z,0.00
2022-10-21T01:48:16.248Z,0.00
2022-10-21T01:49:16.269Z,0.00
2022-10-21T01:50:16.346Z,0.00
2022-10-21T01:51:16.772Z,0.00
2022-10-21T01:52:16.367Z,0.00
2022-10-21T01:53:16.395Z,0.00
2022-10-21T01:54:18.314Z,0.00
2022-10-21T01:55:16.458Z,0.00
2022-10-21T01:56:16.494Z,0.00
2022-10-21T01:57:16.790Z,0.00
2022-10-21T01:59:16.884Z,0.00
2022-10-21T02:00:16.697Z,0.00
2022-10-21T02:01:16.730Z,0.00
2022-10-21T02:02:16.678Z,0.00
2022-10-21T02:03:16.726Z,0.00
2022-10-21T02:05:17.080Z,0.00
2022-10-21T02:06:16.803Z,0.00
2022-10-21T02:07:16.834Z,0.00
2022-10-21T02:08:16.864Z,0.00
2022-10-21T02:09:16.895Z,0.00
2022-10-21T02:10:16.928Z,0.00
2022-10-21T02:11:17.510Z,0.00
2022-10-21T02:12:16.988Z,0.00
2022-10-21T02:13:17.022Z,0.00
2022-10-21T02:15:17.092Z,0.00
2022-10-21T02:16:17.115Z,0.00
2022-10-21T02:17:17.496Z,0.00
2022-10-21T02:18:17.284Z,0.00
2022-10-21T02:19:17.334Z,0.00
2022-10-21T02:20:17.240Z,0.00
2022-10-21T02:21:17.270Z,0.00
2022-10-21T02:22:17.340Z,0.00
2022-10-21T02:23:17.634Z,0.00
2022-10-21T02:24:17.399Z,0.00
2022-10-21T02:25:17.399Z,0.00
2022-10-21T02:26:17.434Z,0.00
2022-10-21T02:27:17.461Z,0.00
2022-10-21T02:28:17.495Z,0.00
2022-10-21T02:29:17.525Z,0.00
2022-10-21T02:30:17.955Z,0.00
2022-10-21T02:31:17.589Z,0.00
2022-10-21T02:32:17.622Z,0.00
2022-10-21T02:33:17.647Z,0.00
2022-10-21T02:34:17.687Z,0.00
2022-10-21T02:35:17.735Z,0.00
2022-10-21T02:36:17.743Z,0.00
2022-10-21T02:37:18.080Z,0.00
2022-10-21T02:38:17.809Z,0.00
2022-10-21T02:39:17.834Z,0.00
2022-10-21T02:40:17.965Z,0.00
2022-10-21T02:41:18.432Z,0.00
2022-10-21T02:43:18.214Z,0.00
2022-10-21T02:45:18.064Z,0.00
2022-10-21T02:46:18.061Z,0.00
2022-10-21T02:48:18.147Z,0.00
2022-10-21T02:50:18.252Z,0.00
2022-10-21T02:51:18.518Z,0.00
2022-10-21T02:52:18.243Z,0.00
2022-10-21T02:53:18.299Z,0.00
2022-10-21T02:54:18.308Z,0.00
2022-10-21T02:55:18.461Z,0.00
2022-10-21T02:56:18.403Z,0.00
2022-10-21T02:57:18.402Z,0.00
2022-10-21T02:58:18.831Z,0.00
2022-10-21T02:59:18.471Z,0.00
2022-10-21T03:01:18.709Z,0.00
2022-10-21T03:03:18.586Z,0.00
2022-10-21T03:04:18.620Z,0.00
2022-10-21T03:05:18.980Z,0.00
2022-10-21T03:06:18.684Z,0.00
2022-10-21T03:07:18.731Z,0.00
2022-10-21T03:08:18.749Z,0.00
2022-10-21T03:09:18.780Z,0.00
2022-10-21T03:10:18.810Z,0.00
2022-10-21T03:11:18.839Z,0.00
2022-10-21T03:12:19.175Z,0.00
2022-10-21T03:13:18.900Z,0.00
2022-10-21T03:14:18.933Z,0.00
2022-10-21T03:15:18.966Z,0.00
2022-10-21T03:17:21.599Z,0.00
2022-10-21T03:18:19.071Z,0.00
2022-10-21T03:20:19.499Z,0.00
2022-10-21T03:21:19.155Z,0.00
2022-10-21T03:23:19.236Z,0.00
2022-10-21T03:24:28.076Z,0.00
2022-10-21T03:26:19.611Z,0.00
2022-10-21T03:27:19.454Z,0.00
2022-10-21T03:28:19.372Z,0.00
2022-10-21T03:29:19.436Z,0.00
2022-10-21T03:30:19.600Z,0.00
2022-10-21T03:32:20.502Z,0.00
2022-10-21T03:33:19.527Z,0.00
2022-10-21T03:34:19.556Z,0.00
2022-10-21T03:35:19.591Z,0.00
2022-10-21T03:36:19.620Z,0.00
2022-10-21T03:37:19.657Z,0.00
2022-10-21T03:38:20.027Z,0.00
2022-10-21T03:39:19.737Z,0.00
2022-10-21T03:40:19.752Z,0.00
2022-10-21T03:41:19.836Z,0.00
2022-10-21T03:42:19.808Z,0.00
2022-10-21T03:43:19.848Z,0.00
2022-10-21T03:44:21.620Z,0.00
2022-10-21T03:45:19.922Z,0.00
2022-10-21T03:46:19.931Z,0.00
2022-10-21T03:47:19.965Z,0.00
2022-10-21T03:48:19.995Z,0.00
2022-10-21T03:49:21.539Z,0.00
2022-10-21T03:50:23.700Z,0.00
2022-10-21T03:51:20.391Z,0.00
2022-10-21T03:52:20.125Z,0.00
2022-10-21T03:54:20.182Z,0.00
2022-10-21T03:55:20.239Z,0.00
2022-10-21T03:57:20.736Z,0.00
2022-10-21T03:58:20.313Z,0.00
2022-10-21T03:59:20.348Z,0.00
2022-10-21T04:00:20.387Z,0.00
2022-10-21T04:01:20.525Z,0.00
2022-10-21T04:03:20.829Z,0.00
2022-10-21T04:04:20.509Z,0.00
2022-10-21T04:05:20.537Z,0.00
2022-10-21T04:06:20.574Z,0.00
2022-10-21T04:07:20.601Z,0.00
2022-10-21T04:08:21.102Z,0.00
2022-10-21T04:09:20.663Z,0.00
2022-10-21T04:10:20.991Z,0.00
2022-10-21T04:12:20.787Z,0.00
2022-10-21T04:13:20.879Z,0.00
2022-10-21T04:14:20.810Z,0.00
2022-10-21T04:15:20.843Z,0.00
2022-10-21T04:16:20.927Z,0.00
2022-10-21T04:17:21.209Z,0.00
2022-10-21T04:18:20.979Z,0.00
2022-10-21T04:19:20.967Z,0.00
2022-10-21T04:20:20.997Z,0.00
2022-10-21T04:21:21.030Z,0.00
2022-10-21T04:22:21.110Z,0.00
2022-10-21T04:23:21.300Z,0.00
2022-10-21T04:24:21.407Z,0.00
2022-10-21T04:25:21.154Z,0.00
2022-10-21T04:26:21.184Z,0.00
2022-10-21T04:27:21.225Z,0.00
2022-10-21T04:28:21.262Z,0.00
2022-10-21T04:29:21.279Z,0.00
2022-10-21T04:30:21.307Z,0.00
2022-10-21T04:31:21.741Z,0.00
2022-10-21T04:32:21.378Z,0.00
2022-10-21T04:33:21.404Z,0.00
2022-10-21T04:34:21.448Z,0.00
2022-10-21T04:35:21.568Z,0.00
2022-10-21T04:36:21.495Z,0.00
2022-10-21T04:37:21.636Z,0.00
2022-10-21T04:39:21.924Z,0.00
2022-10-21T04:40:21.627Z,0.00
2022-10-21T04:41:21.653Z,0.00
2022-10-21T04:42:21.775Z,0.00
2022-10-21T04:43:21.743Z,0.00
2022-10-21T04:44:21.767Z,0.00
2022-10-21T04:45:21.776Z,0.00
2022-10-21T04:46:22.126Z,0.00
2022-10-21T04:47:21.934Z,0.00
2022-10-21T04:48:21.872Z,0.00
2022-10-21T04:49:21.903Z,0.00
2022-10-21T04:50:21.934Z,0.00
2022-10-21T04:51:22.077Z,0.00
2022-10-21T04:52:22.070Z,0.00
2022-10-21T04:53:22.347Z,0.00
2022-10-21T04:55:22.096Z,0.00
2022-10-21T04:56:22.146Z,0.00
2022-10-21T04:57:22.174Z,0.00
2022-10-21T04:58:22.514Z,0.00
2022-10-21T04:59:22.216Z,0.00
2022-10-21T05:00:22.589Z,0.00
2022-10-21T05:02:24.538Z,0.00
2022-10-21T05:03:22.338Z,0.00
2022-10-21T05:04:22.371Z,0.00
2022-10-21T05:05:22.401Z,0.00
2022-10-21T05:06:22.437Z,0.00
2022-10-21T05:07:22.464Z,0.00
2022-10-21T05:08:22.504Z,0.00
2022-10-21T05:09:22.526Z,0.00
2022-10-21T05:10:22.568Z,0.00
2022-10-21T05:11:22.595Z,0.00
2022-10-21T05:12:22.650Z,0.00
2022-10-21T05:13:22.952Z,0.00
2022-10-21T05:14:23.008Z,0.00
2022-10-21T05:15:22.715Z,0.00
2022-10-21T05:16:22.767Z,0.00
2022-10-21T05:17:22.778Z,0.00
2022-10-21T05:18:24.112Z,0.00
2022-10-21T05:19:23.542Z,0.00
2022-10-21T05:21:22.901Z,0.00
2022-10-21T05:22:22.935Z,0.00
2022-10-21T05:23:23.218Z,0.00
2022-10-21T05:24:22.997Z,0.00
2022-10-21T05:25:23.976Z,0.00
2022-10-21T05:26:23.058Z,0.00
2022-10-21T05:27:23.095Z,0.00
2022-10-21T05:28:23.121Z,0.00
2022-10-21T05:29:24.018Z,0.00
2022-10-21T05:30:23.184Z,0.00
2022-10-21T05:31:23.219Z,0.00
2022-10-21T05:33:23.548Z,0.00
2022-10-21T05:34:23.320Z,0.00
2022-10-21T05:35:23.392Z,0.00
2022-10-21T05:36:24.192Z,0.00
2022-10-21T05:37:23.404Z,0.00
2022-10-21T05:38:23.436Z,0.00
2022-10-21T05:39:23.470Z,0.00
2022-10-21T05:40:23.501Z,0.00
2022-10-21T05:41:23.530Z,0.00
2022-10-21T05:42:23.557Z,0.00
2022-10-21T05:43:23.611Z,0.00
2022-10-21T05:44:23.623Z,0.00
2022-10-21T05:45:23.899Z,0.00
2022-10-21T05:46:23.691Z,0.00
2022-10-21T05:47:24.312Z,0.00
2022-10-21T05:48:23.758Z,0.00
2022-10-21T05:49:23.849Z,0.00
2022-10-21T05:50:24.195Z,0.00
2022-10-21T05:51:23.890Z,0.00
2022-10-21T05:52:24.126Z,0.00
2022-10-21T05:53:23.902Z,0.00
2022-10-21T05:54:23.935Z,0.00
2022-10-21T05:56:23.996Z,0.00
2022-10-21T05:57:24.030Z,0.00
2022-10-21T05:58:24.057Z,0.00
2022-10-21T06:00:24.128Z,0.00
2022-10-21T06:01:24.282Z,0.00
2022-10-21T06:02:24.192Z,0.00
2022-10-21T06:03:24.219Z,0.00
2022-10-21T06:04:24.300Z,0.00
2022-10-21T06:05:24.550Z,0.00
2022-10-21T06:06:24.376Z,0.00
2022-10-21T06:07:24.339Z,0.00
2022-10-21T06:08:24.385Z,0.00
2022-10-21T06:09:24.408Z,0.00
2022-10-21T06:10:28.265Z,0.00
2022-10-21T06:11:24.468Z,0.00
2022-10-21T06:12:24.498Z,0.00
2022-10-21T06:14:24.561Z,0.00
2022-10-21T06:16:24.625Z,0.00
2022-10-21T06:17:24.704Z,0.00
2022-10-21T06:18:24.936Z,0.00
2022-10-21T06:19:24.725Z,0.00
2022-10-21T06:20:24.753Z,0.00
2022-10-21T06:21:24.800Z,0.00
2022-10-21T06:22:24.807Z,0.00
2022-10-21T06:23:24.847Z,0.00
2022-10-21T06:24:25.127Z,5.63
2022-10-21T06:25:24.912Z,5.63
2022-10-21T06:26:24.935Z,5.63
2022-10-21T06:27:24.966Z,5.63
2022-10-21T06:29:25.030Z,5.63
2022-10-21T06:30:25.082Z,5.63
2022-10-21T06:31:25.395Z,5.63
2022-10-21T06:33:27.201Z,0.00
2022-10-21T06:35:25.220Z,0.00
2022-10-21T06:36:25.246Z,0.00
2022-10-21T06:37:25.553Z,0.00
2022-10-21T06:38:25.311Z,0.00
2022-10-21T06:39:25.342Z,5.63
2022-10-21T06:40:25.382Z,5.63
2022-10-21T06:41:25.454Z,5.63
2022-10-21T06:42:25.435Z,5.63
2022-10-21T06:44:25.830Z,5.63
2022-10-21T06:45:25.528Z,5.63
2022-10-21T06:46:25.566Z,5.63
2022-10-21T06:47:25.765Z,5.63
2022-10-21T06:48:25.623Z,5.63
2022-10-21T06:50:26.034Z,11.25
2022-10-21T06:51:25.780Z,11.25
2022-10-21T06:53:25.803Z,11.25
2022-10-21T06:54:25.900Z,11.25
2022-10-21T06:55:25.845Z,11.25
2022-10-21T06:56:25.942Z,5.63
2022-10-21T06:57:25.904Z,5.63
2022-10-21T06:58:25.939Z,5.63
2022-10-21T06:59:25.998Z,5.63
2022-10-21T07:00:26.207Z,5.63
2022-10-21T07:01:34.897Z,5.63
2022-10-21T07:02:26.323Z,5.63
2022-10-21T07:03:26.094Z,5.63
2022-10-21T07:04:26.130Z,5.63
2022-10-21T07:05:26.156Z,5.63
2022-10-21T07:06:26.259Z,5.63
2022-10-21T07:08:46.258Z,5.63
2022-10-21T07:09:26.355Z,5.63
2022-10-21T07:10:26.312Z,5.63
2022-10-21T07:11:26.349Z,5.63
2022-10-21T07:12:26.376Z,5.63
2022-10-21T07:13:26.405Z,5.63
2022-10-21T07:14:26.441Z,5.63
2022-10-21T07:15:26.798Z,5.63
2022-10-21T07:17:26.531Z,5.63
2022-10-21T07:18:26.565Z,11.25
2022-10-21T07:19:26.598Z,5.63
2022-10-21T07:20:26.632Z,5.63
2022-10-21T07:21:26.954Z,5.63
2022-10-21T07:22:26.689Z,5.63
2022-10-21T07:23:26.716Z,5.63
2022-10-21T07:24:26.750Z,5.63
2022-10-21T07:25:26.804Z,0.00
2022-10-21T07:26:26.815Z,0.00
2022-10-21T07:27:26.851Z,0.00
2022-10-21T07:28:27.128Z,0.00
2022-10-21T07:29:26.957Z,0.00
2022-10-21T07:30:26.999Z,0.00
2022-10-21T07:31:26.979Z,0.00
2022-10-21T07:32:27.001Z,0.00
2022-10-21T07:33:27.031Z,0.00
2022-10-21T07:34:27.065Z,0.00
2022-10-21T07:35:27.342Z,5.63
2022-10-21T07:36:27.136Z,5.63
2022-10-21T07:37:27.169Z,5.63
2022-10-21T07:38:27.190Z,5.63
2022-10-21T07:39:27.223Z,5.63
2022-10-21T07:40:27.255Z,5.63
2022-10-21T07:41:27.305Z,5.63
2022-10-21T07:42:27.568Z,5.63
2022-10-21T07:43:27.346Z,5.63
2022-10-21T07:44:27.380Z,5.63
2022-10-21T07:45:27.507Z,5.63
2022-10-21T07:46:27.442Z,5.63
2022-10-21T07:47:27.469Z,5.63
2022-10-21T07:48:27.505Z,5.63
2022-10-21T07:49:27.783Z,5.63
2022-10-21T07:50:27.564Z,5.63
2022-10-21T07:51:31.054Z,5.63
2022-10-21T07:52:27.631Z,5.63
2022-10-21T07:53:27.658Z,5.63
2022-10-21T07:54:27.689Z,11.25
2022-10-21T07:55:27.722Z,11.25
2022-10-21T07:56:28.006Z,11.25
2022-10-21T07:57:27.802Z,11.25
2022-10-21T07:58:27.821Z,11.25
2022-10-21T08:01:28.052Z,11.25
2022-10-21T08:03:28.223Z,11.25
2022-10-21T08:04:28.008Z,11.25
2022-10-21T08:05:28.036Z,11.25
2022-10-21T08:06:28.070Z,11.25
2022-10-21T08:07:28.123Z,11.25
2022-10-21T08:08:28.230Z,11.25
2022-10-21T08:09:28.158Z,11.25
2022-10-21T08:10:28.491Z,11.25
2022-10-21T08:11:28.226Z,11.25
2022-10-21T08:12:28.261Z,11.25
2022-10-21T08:13:28.303Z,11.25
2022-10-21T08:14:28.321Z,11.25
2022-10-21T08:15:28.349Z,16.88
2022-10-21T08:16:28.380Z,16.88
2022-10-21T08:17:28.410Z,16.88
2022-10-21T08:18:28.445Z,16.88
2022-10-21T08:19:28.472Z,16.88
2022-10-21T08:20:28.512Z,16.88
2022-10-21T08:21:28.539Z,16.88
2022-10-21T08:22:28.579Z,16.88
2022-10-21T08:23:29.026Z,16.88
2022-10-21T08:24:28.637Z,16.88
2022-10-21T08:25:28.669Z,16.88
2022-10-21T08:26:28.697Z,16.88
2022-10-21T08:27:28.727Z,16.88
2022-10-21T08:28:28.759Z,16.88
2022-10-21T08:29:29.110Z,16.88
2022-10-21T08:30:28.971Z,16.88
2022-10-21T08:31:28.853Z,16.88
2022-10-21T08:32:28.884Z,16.88
2022-10-21T08:33:28.911Z,16.88
2022-10-21T08:34:28.946Z,16.88
2022-10-21T08:35:29.277Z,16.88
2022-10-21T08:36:29.012Z,16.88
2022-10-21T08:37:29.038Z,16.88
2022-10-21T08:38:29.074Z,16.88
2022-10-21T08:39:29.105Z,16.88
2022-10-21T08:42:29.495Z,16.88
2022-10-21T08:43:29.227Z,16.88
2022-10-21T08:44:29.262Z,16.88
2022-10-21T08:45:29.310Z,16.88
2022-10-21T08:46:29.323Z,16.88
2022-10-21T08:47:29.408Z,16.88
2022-10-21T08:48:29.634Z,16.88
2022-10-21T08:49:30.898Z,16.88
2022-10-21T08:50:29.449Z,16.88
2022-10-21T08:51:29.481Z,16.88
2022-10-21T08:52:29.512Z,16.88
2022-10-21T08:54:29.881Z,16.88
2022-10-21T08:55:29.608Z,16.88
2022-10-21T08:56:29.636Z,16.88
2022-10-21T08:57:29.668Z,16.88
2022-10-21T08:58:29.703Z,16.88
2022-10-21T08:59:29.735Z,16.88
2022-10-21T09:00:29.763Z,16.88
2022-10-21T09:01:29.812Z,16.88
2022-10-21T09:04:29.894Z,16.88
2022-10-21T09:06:30.230Z,11.25
2022-10-21T09:07:29.982Z,11.25
2022-10-21T09:08:30.057Z,16.88
2022-10-21T09:09:30.047Z,16.88
2022-10-21T09:10:30.075Z,16.88
2022-10-21T09:11:30.108Z,16.88
2022-10-21T09:12:30.390Z,16.88
2022-10-21T09:13:30.171Z,16.88
2022-10-21T09:15:30.237Z,16.88
2022-10-21T09:17:30.318Z,22.50
2022-10-21T09:18:30.328Z,22.50
2022-10-21T09:19:30.660Z,28.13
2022-10-21T09:20:30.392Z,28.13
2022-10-21T09:21:30.426Z,28.13
2022-10-21T09:22:35.228Z,28.13
2022-10-21T09:23:30.488Z,28.13
2022-10-21T09:24:30.516Z,28.13
2022-10-21T09:25:30.847Z,28.13
2022-10-21T09:26:30.650Z,28.13
2022-10-21T09:27:37.932Z,28.13
2022-10-21T09:28:30.693Z,28.13
2022-10-21T09:29:30.673Z,28.13
2022-10-21T09:30:30.709Z,28.13
2022-10-21T09:32:31.023Z,28.13
2022-10-21T09:33:30.823Z,28.13
2022-10-21T09:34:30.832Z,28.13
2022-10-21T09:35:30.865Z,22.50
2022-10-21T09:36:30.896Z,22.50
2022-10-21T09:37:34.657Z,22.50
2022-10-21T09:38:30.959Z,22.50
2022-10-21T09:39:31.296Z,22.50
2022-10-21T09:40:31.031Z,16.88
2022-10-21T09:41:31.049Z,16.88
2022-10-21T09:42:51.944Z,16.88
2022-10-21T09:43:31.116Z,16.88
2022-10-21T09:44:31.147Z,16.88
2022-10-21T09:45:31.182Z,16.88
2022-10-21T09:46:31.466Z,16.88
2022-10-21T09:47:31.240Z,16.88
2022-10-21T09:48:36.979Z,16.88
2022-10-21T09:51:31.479Z,22.50
2022-10-21T09:52:31.501Z,22.50
2022-10-21T09:53:31.729Z,28.13
2022-10-21T09:54:31.469Z,28.13
2022-10-21T09:55:31.507Z,28.13
2022-10-21T09:56:31.527Z,28.13
2022-10-21T09:57:31.568Z,22.50
2022-10-21T09:58:31.587Z,22.50
2022-10-21T09:59:33.215Z,22.50
2022-10-21T10:00:31.955Z,22.50
2022-10-21T10:01:31.786Z,22.50
2022-10-21T10:02:31.712Z,22.50
2022-10-21T10:03:31.746Z,22.50
2022-10-21T10:04:31.777Z,22.50
2022-10-21T10:05:31.804Z,22.50
2022-10-21T10:06:31.841Z,22.50
2022-10-21T10:07:32.145Z,22.50
2022-10-21T10:08:31.954Z,28.13
2022-10-21T10:09:32.044Z,28.13
2022-10-21T10:10:31.968Z,28.13
2022-10-21T10:11:31.995Z,28.13
2022-10-21T10:12:32.030Z,28.13
2022-10-21T10:13:32.058Z,28.13
2022-10-21T10:14:32.341Z,28.13
2022-10-21T10:15:32.123Z,28.13
2022-10-21T10:16:32.155Z,22.50
2022-10-21T10:17:32.189Z,16.88
2022-10-21T10:18:32.216Z,16.88
2022-10-21T10:19:32.319Z,11.25
2022-10-21T10:20:32.281Z,11.25
2022-10-21T10:21:32.564Z,11.25
2022-10-21T10:22:32.345Z,11.25
2022-10-21T10:23:32.444Z,11.25
2022-10-21T10:24:32.478Z,5.63
2022-10-21T10:25:32.455Z,5.63
2022-10-21T10:26:32.472Z,5.63
2022-10-21T10:27:32.505Z,5.63
2022-10-21T10:29:32.818Z,11.25
2022-10-21T10:30:32.592Z,11.25
2022-10-21T10:31:32.629Z,11.25
2022-10-21T10:32:32.661Z,11.25
2022-10-21T10:33:32.693Z,11.25
2022-10-21T10:34:32.723Z,11.25
2022-10-21T10:35:32.755Z,16.88
2022-10-21T10:36:33.087Z,16.88
2022-10-21T10:37:32.835Z,16.88
2022-10-21T10:38:32.854Z,22.50
2022-10-21T10:39:33.003Z,28.13
2022-10-21T10:40:32.911Z,28.13
2022-10-21T10:41:32.948Z,33.75
2022-10-21T10:42:32.990Z,33.75
2022-10-21T10:43:33.255Z,33.75
2022-10-21T10:44:33.037Z,39.38
2022-10-21T10:45:33.068Z,39.38
2022-10-21T10:46:33.100Z,45.00
2022-10-21T10:47:33.156Z,45.00
2022-10-21T10:48:33.167Z,45.00
2022-10-21T10:49:33.195Z,45.00
2022-10-21T10:50:33.528Z,50.63
2022-10-21T10:51:33.259Z,50.63
2022-10-21T10:52:33.297Z,50.63
2022-10-21T10:53:33.320Z,45.00
2022-10-21T10:54:33.353Z,45.00
2022-10-21T10:56:33.782Z,45.00
2022-10-21T10:57:44.157Z,45.00
2022-10-21T10:58:33.539Z,50.63
2022-10-21T10:59:33.510Z,56.25
2022-10-21T11:00:33.547Z,50.63
2022-10-21T11:01:33.640Z,50.63
2022-10-21T11:02:33.607Z,45.00
2022-10-21T11:03:35.909Z,45.00
2022-10-21T11:05:33.705Z,45.00
2022-10-21T11:06:33.733Z,45.00
2022-10-21T11:07:33.767Z,45.00
2022-10-21T11:08:34.440Z,50.63
2022-10-21T11:09:34.142Z,50.63
2022-10-21T11:10:33.858Z,50.63
2022-10-21T11:11:33.896Z,50.63
2022-10-21T11:12:34.037Z,50.63
2022-10-21T11:13:34.003Z,50.63
2022-10-21T11:15:34.268Z,50.63
2022-10-21T11:16:50.382Z,56.25
2022-10-21T11:17:34.086Z,56.25
2022-10-21T11:18:34.112Z,61.88
2022-10-21T11:20:34.179Z,67.50
2022-10-21T11:22:34.249Z,84.38
2022-10-21T11:25:34.334Z,101.25
2022-10-21T11:26:34.371Z,101.25
2022-10-21T11:27:34.395Z,106.88
2022-10-21T11:28:34.864Z,112.50
2022-10-21T11:29:34.467Z,118.13
2022-10-21T11:30:34.496Z,123.75
2022-10-21T11:31:43.747Z,129.38
2022-10-21T11:33:34.591Z,129.38
2022-10-21T11:34:34.618Z,135.00
2022-10-21T11:35:34.906Z,135.00
2022-10-21T11:36:34.683Z,135.00
2022-10-21T11:37:34.737Z,129.38
2022-10-21T11:38:34.746Z,129.38
2022-10-21T11:39:34.780Z,129.38
2022-10-21T11:40:34.814Z,129.38
2022-10-21T11:41:34.851Z,129.38
2022-10-21T11:42:35.131Z,129.38
2022-10-21T11:43:34.911Z,129.38
2022-10-21T11:44:35.055Z,129.38
2022-10-21T11:45:34.977Z,129.38
2022-10-21T11:46:35.006Z,129.38
2022-10-21T11:47:35.042Z,135.00
2022-10-21T11:48:35.070Z,135.00
2022-10-21T11:49:37.388Z,129.38
2022-10-21T11:50:35.131Z,129.38
2022-10-21T11:51:35.166Z,129.38
2022-10-21T11:52:35.200Z,129.38
2022-10-21T11:53:35.246Z,129.38
2022-10-21T11:55:35.593Z,129.38
2022-10-21T11:56:35.326Z,129.38
2022-10-21T11:57:35.361Z,135.00
2022-10-21T11:58:35.401Z,140.63
2022-10-21T12:00:35.576Z,129.38
2022-10-21T12:01:35.490Z,129.38
2022-10-21T12:02:35.976Z,118.13
2022-10-21T12:03:35.554Z,112.50
2022-10-21T12:04:35.590Z,106.88
2022-10-21T12:05:35.618Z,101.25
2022-10-21T12:06:35.647Z,95.63
2022-10-21T12:07:35.683Z,95.63
2022-10-21T12:08:38.300Z,90.00
2022-10-21T12:09:36.050Z,90.00
2022-10-21T12:10:35.782Z,84.38
2022-10-21T12:11:35.815Z,84.38
2022-10-21T12:12:36.060Z,78.75
2022-10-21T12:13:35.983Z,78.75
2022-10-21T12:15:36.243Z,78.75
2022-10-21T12:16:36.105Z,73.13
2022-10-21T12:18:36.042Z,73.13
2022-10-21T12:19:36.074Z,73.13
2022-10-21T12:20:36.112Z,73.13
2022-10-21T12:21:36.438Z,73.13
2022-10-21T12:22:36.472Z,73.13
2022-10-21T12:23:36.208Z,73.13
2022-10-21T12:24:36.285Z,73.13
2022-10-21T12:25:36.270Z,73.13
2022-10-21T12:26:36.440Z,78.75
2022-10-21T12:27:36.822Z,78.75
2022-10-21T12:28:36.367Z,78.75
2022-10-21T12:29:36.400Z,78.75
2022-10-21T12:30:36.432Z,78.75
2022-10-21T12:31:36.560Z,78.75
2022-10-21T12:32:36.708Z,78.75
2022-10-21T12:33:36.926Z,78.75
2022-10-21T12:34:36.562Z,78.75
2022-10-21T12:35:36.691Z,73.13
2022-10-21T12:36:36.624Z,73.13
2022-10-21T12:37:36.781Z,78.75
2022-10-21T12:38:36.693Z,73.13
2022-10-21T12:39:36.730Z,73.13
2022-10-21T12:40:37.061Z,78.75
2022-10-21T12:41:36.789Z,73.13
2022-10-21T12:42:36.820Z,73.13
2022-10-21T12:43:36.893Z,73.13
2022-10-21T12:44:36.961Z,73.13
2022-10-21T12:45:36.926Z,78.75
2022-10-21T12:46:39.227Z,78.75
2022-10-21T12:47:37.666Z,84.38
2022-10-21T12:48:37.037Z,90.00
2022-10-21T12:49:37.048Z,95.63
2022-10-21T12:50:37.181Z,101.25
2022-10-21T12:51:37.116Z,101.25
2022-10-21T12:52:37.149Z,101.25
2022-10-21T12:53:37.356Z,101.25
2022-10-21T12:54:37.461Z,101.25
2022-10-21T12:55:37.264Z,95.63
2022-10-21T12:56:37.282Z,101.25
2022-10-21T12:57:37.767Z,101.25
2022-10-21T12:58:37.458Z,101.25
2022-10-21T12:59:37.373Z,101.25
2022-10-21T13:00:37.457Z,101.25
2022-10-21T13:01:37.692Z,101.25
2022-10-21T13:02:37.824Z,101.25
2022-10-21T13:03:37.514Z,106.88
2022-10-21T13:04:37.557Z,112.50
2022-10-21T13:05:37.589Z,118.13
2022-10-21T13:06:37.791Z,118.13
2022-10-21T13:07:37.900Z,123.75
2022-10-21T13:08:38.012Z,123.75
2022-10-21T13:10:37.742Z,123.75
2022-10-21T13:11:37.777Z,123.75
2022-10-21T13:12:38.133Z,118.13
2022-10-21T13:13:37.841Z,118.13
2022-10-21T13:14:37.873Z,118.13
2022-10-21T13:15:38.152Z,112.50
2022-10-21T13:16:37.932Z,112.50
2022-10-21T13:17:37.970Z,112.50
2022-10-21T13:18:38.001Z,112.50
2022-10-21T13:19:38.030Z,112.50
2022-10-21T13:20:38.156Z,112.50
2022-10-21T13:21:38.101Z,118.13
2022-10-21T13:23:38.161Z,123.75
2022-10-21T13:24:38.199Z,129.38
2022-10-21T13:25:38.231Z,123.75
2022-10-21T13:26:38.266Z,123.75
2022-10-21T13:27:38.298Z,123.75
2022-10-21T13:28:38.638Z,123.75
2022-10-21T13:29:38.391Z,129.38
2022-10-21T13:30:38.444Z,135.00
2022-10-21T13:31:38.428Z,123.75
2022-10-21T13:32:38.853Z,123.75
2022-10-21T13:33:38.506Z,123.75
2022-10-21T13:34:42.215Z,118.13
2022-10-21T13:35:38.574Z,118.13
2022-10-21T13:36:38.642Z,118.13
2022-10-21T13:37:39.139Z,112.50
2022-10-21T13:38:38.670Z,106.88
2022-10-21T13:39:38.796Z,101.25
2022-10-21T13:40:38.969Z,101.25
2022-10-21T13:41:38.790Z,112.50
2022-10-21T13:42:39.387Z,112.50
2022-10-21T13:43:38.825Z,112.50
2022-10-21T13:44:38.860Z,106.88
2022-10-21T13:45:38.890Z,101.25
2022-10-21T13:47:39.252Z,84.38
2022-10-21T13:48:38.989Z,78.75
2022-10-21T13:49:39.018Z,78.75
2022-10-21T13:50:39.053Z,78.75
2022-10-21T13:51:39.090Z,78.75
2022-10-21T13:52:39.138Z,84.38
2022-10-21T13:53:39.452Z,90.00
2022-10-21T13:54:39.278Z,95.63
2022-10-21T13:55:39.247Z,95.63
2022-10-21T13:56:39.252Z,90.00
2022-10-21T13:57:39.695Z,101.25
2022-10-21T13:58:39.480Z,95.63
2022-10-21T13:59:39.353Z,90.00
2022-10-21T14:00:39.652Z,78.75
2022-10-21T14:01:39.476Z,73.13
2022-10-21T14:02:39.449Z,90.00
2022-10-21T14:03:39.549Z,67.50
2022-10-21T14:04:39.516Z,50.63
2022-10-21T14:05:39.547Z,45.00
2022-10-21T14:06:39.582Z,45.00
2022-10-21T14:07:40.306Z,45.00
2022-10-21T14:08:39.720Z,50.63
2022-10-21T14:09:39.684Z,50.63
2022-10-21T14:10:39.718Z,39.38
2022-10-21T14:12:40.154Z,39.38
2022-10-21T14:13:39.812Z,45.00
2022-10-21T14:14:40.146Z,56.25
2022-10-21T14:15:39.881Z,56.25